createdAt,value
2023-01-31T00:02:21.645Z,5.76
2023-01-31T00:12:23.848Z,5.15
2023-01-31T00:22:25.938Z,5.09
2023-01-31T00:32:28.226Z,5.47
2023-01-31T00:42:31.460Z,5.02
2023-01-31T00:52:33.681Z,4.60
2023-01-31T01:02:35.839Z,5.01
2023-01-31T01:12:38.851Z,5.54
2023-01-31T01:22:42.847Z,5.33
2023-01-31T01:32:45.003Z,5.40
2023-01-31T01:42:47.099Z,4.82
2023-01-31T01:52:54.871Z,5.16
2023-01-31T02:02:59.668Z,4.81
2023-01-31T02:13:02.443Z,4.95
2023-01-31T02:23:19.975Z,5.14
2023-01-31T02:33:41.252Z,4.38
2023-01-31T02:44:07.501Z,5.11
2023-01-31T02:54:14.865Z,4.85
2023-01-31T03:04:17.223Z,4.88
2023-01-31T03:14:35.201Z,4.91
2023-01-31T03:24:38.505Z,4.99
2023-01-31T03:34:41.636Z,5.04
2023-01-31T03:44:59.300Z,4.61
2023-01-31T03:55:08.303Z,5.02
2023-01-31T04:05:16.003Z,4.90
2023-01-31T04:15:21.047Z,4.83
2023-01-31T04:25:23.496Z,4.61
2023-01-31T04:35:25.943Z,4.70
2023-01-31T04:45:28.043Z,5.29
2023-01-31T04:55:30.384Z,4.47
2023-01-31T05:05:36.103Z,4.40
2023-01-31T05:15:40.007Z,4.83
2023-01-31T05:25:42.251Z,5.23
2023-01-31T05:35:44.506Z,4.71
2023-01-31T05:45:48.578Z,5.19
2023-01-31T05:55:50.748Z,4.38
2023-01-31T06:05:53.467Z,4.74
2023-01-31T06:15:55.756Z,4.22
2023-01-31T06:25:58.384Z,4.88
2023-01-31T06:36:00.603Z,4.76
2023-01-31T06:46:02.875Z,5.59
2023-01-31T06:56:05.391Z,5.00
2023-01-31T07:06:08.961Z,5.57
2023-01-31T07:16:11.181Z,5.06
2023-01-31T07:26:13.893Z,4.75
2023-01-31T07:36:16.635Z,4.81
2023-01-31T07:46:19.384Z,5.05
2023-01-31T07:56:21.827Z,5.12
2023-01-31T08:06:24.082Z,5.23
2023-01-31T08:16:26.223Z,4.45
2023-01-31T08:26:28.307Z,4.99
2023-01-31T08:36:35.889Z,4.85
2023-01-31T08:46:38.184Z,5.45
2023-01-31T08:56:40.932Z,4.19
2023-01-31T09:06:43.089Z,4.82
2023-01-31T09:16:46.628Z,5.05
2023-01-31T09:26:49.059Z,4.97
2023-01-31T09:36:51.270Z,5.27
2023-01-31T09:46:58.437Z,5.06
2023-01-31T09:57:12.797Z,5.18
2023-01-31T10:07:32.405Z,5.40
2023-01-31T10:17:41.990Z,5.46
2023-01-31T10:27:49.433Z,5.15
2023-01-31T10:37:59.362Z,5.67
2023-01-31T10:48:22.428Z,5.16
2023-01-31T10:58:25.012Z,4.81
2023-01-31T11:08:36.203Z,5.59
2023-01-31T11:18:44.803Z,5.42
2023-01-31T11:28:51.007Z,5.49
2023-01-31T11:38:54.047Z,6.26
2023-01-31T11:48:56.452Z,5.58
2023-01-31T11:59:04.257Z,5.80
2023-01-31T12:09:28.496Z,5.86
2023-01-31T12:19:44.368Z,5.49
2023-01-31T12:30:14.129Z,5.79
2023-01-31T12:40:30.935Z,5.58
2023-01-31T12:50:56.020Z,6.81
2023-01-31T13:01:04.880Z,6.35
2023-01-31T13:11:16.268Z,6.49
2023-01-31T13:21:23.021Z,6.24
2023-01-31T13:31:30.965Z,6.23
2023-01-31T13:41:34.304Z,6.55
2023-01-31T13:51:49.988Z,6.34
2023-01-31T14:01:53.239Z,5.91
2023-01-31T14:11:57.595Z,6.11
2023-01-31T14:22:02.661Z,5.86
2023-01-31T14:32:13.863Z,5.38
2023-01-31T14:42:22.080Z,6.20
2023-01-31T14:52:42.131Z,6.30
2023-01-31T15:03:08.330Z,6.49
2023-01-31T15:13:44.078Z,6.71
2023-01-31T15:23:46.301Z,6.38
2023-01-31T15:33:51.517Z,6.98
2023-01-31T15:43:56.784Z,6.98
2023-01-31T15:54:06.218Z,6.95
2023-01-31T16:04:08.611Z,7.21
2023-01-31T16:14:11.355Z,6.61
2023-01-31T16:24:18.624Z,6.52
2023-01-31T16:34:28.037Z,6.59
2023-01-31T16:44:35.039Z,6.60
2023-01-31T16:54:51.138Z,7.42
2023-01-31T17:04:56.249Z,6.79
2023-01-31T17:15:02.805Z,6.77
2023-01-31T17:25:18.879Z,7.38
2023-01-31T17:35:25.400Z,7.55
2023-01-31T17:45:29.016Z,7.17
2023-01-31T17:55:31.178Z,6.86
2023-01-31T18:05:39.251Z,7.65
2023-01-31T18:15:42.067Z,7.06
2023-01-31T18:25:44.386Z,7.46
2023-01-31T18:35:55.846Z,7.67
2023-01-31T18:45:58.960Z,7.89
2023-01-31T18:56:10.134Z,7.29
2023-01-31T19:06:29.239Z,7.48
2023-01-31T19:16:31.406Z,6.91
2023-01-31T19:26:34.703Z,7.22
2023-01-31T19:36:39.214Z,7.28
2023-01-31T19:46:43.517Z,6.89
2023-01-31T19:56:46.900Z,6.95
2023-01-31T20:06:49.604Z,7.17
2023-01-31T20:16:51.891Z,6.65
2023-01-31T20:26:54.347Z,6.50
2023-01-31T20:36:56.499Z,6.74
2023-01-31T20:46:58.896Z,6.33
2023-01-31T20:57:01.190Z,6.58
2023-01-31T21:07:04.018Z,7.36
2023-01-31T21:17:06.446Z,6.69
2023-01-31T21:27:08.858Z,6.92
2023-01-31T21:37:11.646Z,6.46
2023-01-31T21:47:15.376Z,6.44
2023-01-31T21:57:17.551Z,6.31
2023-01-31T22:07:21.183Z,6.63
2023-01-31T22:17:23.479Z,6.47
2023-01-31T22:27:25.748Z,6.62
2023-01-31T22:37:28.035Z,6.42
2023-01-31T22:47:30.170Z,6.70
2023-01-31T22:57:32.284Z,6.44
2023-01-31T23:07:34.496Z,6.46
2023-01-31T23:17:39.532Z,6.23
2023-01-31T23:27:43.430Z,6.25
2023-01-31T23:37:45.673Z,5.78
2023-01-31T23:47:50.464Z,6.77
2023-01-31T23:57:52.716Z,6.71
